createdAt,value
2016-10-10T00:00:06.916Z,937.19
2016-10-10T00:01:19.833Z,937.16
2016-10-10T00:02:32.824Z,937.17
2016-10-10T00:03:45.265Z,937.12
2016-10-10T00:04:58.249Z,937.14
2016-10-10T00:06:11.157Z,937.16
2016-10-10T00:07:24.162Z,937.15
2016-10-10T00:08:37.092Z,937.16
2016-10-10T00:09:49.533Z,937.18
2016-10-10T00:11:02.643Z,937.17
2016-10-10T00:12:15.587Z,937.17
2016-10-10T00:13:29.110Z,937.2
2016-10-10T00:14:42.597Z,937.21
2016-10-10T00:15:56.131Z,937.2
2016-10-10T00:17:09.267Z,937.22
2016-10-10T00:18:21.696Z,937.19
2016-10-10T00:19:35.130Z,937.24
2016-10-10T00:20:47.110Z,937.23
2016-10-10T00:22:00.310Z,937.24
2016-10-10T00:23:13.801Z,937.24
2016-10-10T00:24:26.282Z,937.29
2016-10-10T00:25:39.239Z,937.28
2016-10-10T00:26:52.263Z,937.26
2016-10-10T00:28:04.872Z,937.26
2016-10-10T00:29:17.344Z,937.25
2016-10-10T00:30:30.303Z,937.31
2016-10-10T00:31:43.250Z,937.29
2016-10-10T00:32:57.032Z,937.34
2016-10-10T00:34:09.577Z,937.27
2016-10-10T00:35:22.514Z,937.35
2016-10-10T00:36:36.024Z,937.33
2016-10-10T00:37:47.893Z,937.31
2016-10-10T00:39:00.898Z,937.33
2016-10-10T00:40:12.774Z,937.31
2016-10-10T00:41:26.275Z,937.33
2016-10-10T00:42:39.770Z,937.29
2016-10-10T00:43:53.484Z,937.31
2016-10-10T00:45:06.460Z,937.32
2016-10-10T00:46:19.956Z,937.34
2016-10-10T00:47:33.402Z,937.32
2016-10-10T00:48:45.913Z,937.34
2016-10-10T00:49:57.796Z,937.35
2016-10-10T00:51:10.955Z,937.33
2016-10-10T00:52:24.449Z,937.37
2016-10-10T00:53:37.989Z,937.36
2016-10-10T00:54:51.431Z,937.42
2016-10-10T00:56:03.889Z,937.43
2016-10-10T00:57:17.375Z,937.43
2016-10-10T00:58:30.895Z,937.44
2016-10-10T00:59:43.930Z,937.44
2016-10-10T01:00:56.618Z,937.44
2016-10-10T01:02:09.152Z,937.5
2016-10-10T01:03:22.091Z,937.44
2016-10-10T01:04:34.538Z,937.42
2016-10-10T01:05:48.100Z,937.44
2016-10-10T01:07:01.128Z,937.42
2016-10-10T01:08:14.769Z,937.45
2016-10-10T01:09:28.248Z,937.44
2016-10-10T01:10:41.777Z,937.47
2016-10-10T01:11:54.296Z,937.46
2016-10-10T01:13:07.829Z,937.42
2016-10-10T01:14:19.220Z,937.44
2016-10-10T01:15:31.120Z,937.4
2016-10-10T01:16:44.833Z,937.43
2016-10-10T01:17:57.215Z,937.39
2016-10-10T01:19:10.177Z,937.35
2016-10-10T01:20:22.069Z,937.4
2016-10-10T01:21:35.602Z,937.34
2016-10-10T01:22:49.061Z,937.35
2016-10-10T01:24:02.000Z,937.36
2016-10-10T01:25:14.391Z,937.36
2016-10-10T01:26:27.350Z,937.33
2016-10-10T01:27:40.729Z,937.34
2016-10-10T01:28:53.345Z,937.34
2016-10-10T01:30:06.262Z,937.34
2016-10-10T01:31:18.868Z,937.34
2016-10-10T01:32:32.358Z,937.35
2016-10-10T01:33:46.077Z,937.32
2016-10-10T01:34:58.495Z,937.33
2016-10-10T01:36:11.672Z,937.31
2016-10-10T01:37:23.565Z,937.36
2016-10-10T01:38:36.681Z,937.32
2016-10-10T01:39:50.342Z,937.37
2016-10-10T01:41:02.240Z,937.37
2016-10-10T01:42:15.199Z,937.34
2016-10-10T01:43:28.731Z,937.35
2016-10-10T01:44:41.918Z,937.33
2016-10-10T01:45:55.374Z,937.33
2016-10-10T01:47:07.895Z,937.29
2016-10-10T01:48:21.422Z,937.29
2016-10-10T01:49:34.509Z,937.24
2016-10-10T01:50:48.001Z,937.28
2016-10-10T01:52:00.989Z,937.28
2016-10-10T01:53:14.494Z,937.28
2016-10-10T01:54:27.426Z,937.25
2016-10-10T01:55:40.999Z,937.25
2016-10-10T01:56:53.906Z,937.26
2016-10-10T01:58:06.882Z,937.22
2016-10-10T01:59:19.983Z,937.27
2016-10-10T02:00:33.202Z,937.27
2016-10-10T02:01:46.271Z,937.26
2016-10-10T02:02:58.789Z,937.26
2016-10-10T02:04:11.286Z,937.31
2016-10-10T02:05:24.300Z,937.29
2016-10-10T02:06:36.749Z,937.29
2016-10-10T02:07:49.771Z,937.25
2016-10-10T02:09:02.189Z,937.27
2016-10-10T02:10:15.160Z,937.24
2016-10-10T02:11:28.219Z,937.23
2016-10-10T02:12:40.685Z,937.18
2016-10-10T02:13:54.258Z,937.24
2016-10-10T02:15:07.716Z,937.19
2016-10-10T02:16:19.646Z,937.19
2016-10-10T02:17:33.123Z,937.11
2016-10-10T02:18:45.528Z,937.13
2016-10-10T02:19:58.074Z,937.1
2016-10-10T02:21:12.037Z,937.11
2016-10-10T02:22:25.184Z,937.08
2016-10-10T02:23:38.113Z,937.06
2016-10-10T02:24:51.750Z,937.08
2016-10-10T02:26:05.213Z,937.11
2016-10-10T02:27:18.206Z,937.09
2016-10-10T02:28:31.358Z,937.08
2016-10-10T02:29:44.801Z,937.09
2016-10-10T02:30:58.327Z,937.09
2016-10-10T02:32:10.791Z,937.13
2016-10-10T02:33:24.364Z,937.06
2016-10-10T02:34:37.338Z,937.07
2016-10-10T02:35:50.837Z,937.01
2016-10-10T02:37:04.349Z,937.09
2016-10-10T02:38:17.334Z,937.05
2016-10-10T02:39:30.398Z,937.03
2016-10-10T02:40:42.929Z,937.03
2016-10-10T02:41:55.952Z,937
2016-10-10T02:43:08.976Z,937.01
2016-10-10T02:44:21.483Z,937
2016-10-10T02:45:32.860Z,937.02
2016-10-10T02:46:46.338Z,936.99
2016-10-10T02:47:59.845Z,937
2016-10-10T02:49:13.313Z,936.97
2016-10-10T02:50:25.862Z,936.98
2016-10-10T02:51:38.811Z,936.97
2016-10-10T02:52:51.911Z,936.94
2016-10-10T02:54:05.546Z,936.93
2016-10-10T02:55:18.656Z,936.96
2016-10-10T02:56:31.717Z,936.95
2016-10-10T02:57:44.772Z,936.95
2016-10-10T02:58:57.790Z,936.9
2016-10-10T03:00:11.456Z,936.88
2016-10-10T03:01:23.488Z,936.89
2016-10-10T03:02:36.473Z,936.92
2016-10-10T03:03:49.973Z,936.93
2016-10-10T03:05:03.476Z,936.86
2016-10-10T03:06:16.647Z,936.87
2016-10-10T03:07:29.595Z,936.86
2016-10-10T03:08:43.062Z,936.91
2016-10-10T03:09:56.576Z,936.88
2016-10-10T03:11:09.542Z,936.89
2016-10-10T03:12:21.997Z,936.89
2016-10-10T03:13:34.916Z,936.92
2016-10-10T03:14:48.384Z,936.93
2016-10-10T03:16:01.350Z,936.93
2016-10-10T03:17:14.624Z,936.94
2016-10-10T03:18:27.630Z,936.92
2016-10-10T03:19:40.051Z,936.89
2016-10-10T03:20:52.564Z,936.83
2016-10-10T03:22:05.511Z,936.81
2016-10-10T03:23:18.579Z,936.76
2016-10-10T03:24:32.083Z,936.76
2016-10-10T03:25:45.592Z,936.75
2016-10-10T03:26:58.075Z,936.69
2016-10-10T03:28:11.159Z,936.73
2016-10-10T03:29:22.988Z,936.74
2016-10-10T03:30:35.993Z,936.78
2016-10-10T03:31:49.465Z,936.76
2016-10-10T03:33:01.840Z,936.77
2016-10-10T03:34:14.712Z,936.73
2016-10-10T03:35:27.100Z,936.72
2016-10-10T03:36:39.524Z,936.73
2016-10-10T03:37:53.034Z,936.74
2016-10-10T03:39:06.667Z,936.69
2016-10-10T03:40:19.678Z,936.71
2016-10-10T03:41:32.600Z,936.64
2016-10-10T03:42:45.119Z,936.61
2016-10-10T03:43:58.066Z,936.57
2016-10-10T03:45:10.512Z,936.57
2016-10-10T03:46:24.111Z,936.6
2016-10-10T03:47:37.650Z,936.66
2016-10-10T03:48:49.566Z,936.6
2016-10-10T03:50:03.146Z,936.64
2016-10-10T03:51:16.206Z,936.61
2016-10-10T03:52:28.598Z,936.61
2016-10-10T03:53:42.137Z,936.6
2016-10-10T03:54:55.073Z,936.65
2016-10-10T03:56:08.562Z,936.61
2016-10-10T03:57:21.533Z,936.59
2016-10-10T03:58:34.517Z,936.63
2016-10-10T03:59:47.503Z,936.56
2016-10-10T04:01:00.602Z,936.59
2016-10-10T04:02:14.094Z,936.59
2016-10-10T04:03:27.058Z,936.61
2016-10-10T04:04:40.515Z,936.64
2016-10-10T04:05:52.899Z,936.59
2016-10-10T04:07:04.805Z,936.63
2016-10-10T04:08:17.320Z,936.63
2016-10-10T04:09:30.800Z,936.6
2016-10-10T04:10:43.857Z,936.57
2016-10-10T04:11:56.962Z,936.54
2016-10-10T04:13:09.981Z,936.53
2016-10-10T04:14:21.944Z,936.52
2016-10-10T04:15:34.904Z,936.51
2016-10-10T04:16:48.477Z,936.49
2016-10-10T04:18:01.623Z,936.46
2016-10-10T04:19:13.608Z,936.48
2016-10-10T04:20:26.534Z,936.5
2016-10-10T04:21:38.984Z,936.48
2016-10-10T04:22:52.087Z,936.53
2016-10-10T04:24:05.159Z,936.52
2016-10-10T04:25:18.120Z,936.53
2016-10-10T04:26:31.103Z,936.47
2016-10-10T04:27:43.605Z,936.5
2016-10-10T04:28:56.624Z,936.47
2016-10-10T04:30:09.590Z,936.48
2016-10-10T04:31:23.157Z,936.47
2016-10-10T04:32:36.614Z,936.45
2016-10-10T04:33:49.247Z,936.42
2016-10-10T04:35:01.633Z,936.42
2016-10-10T04:36:14.563Z,936.41
2016-10-10T04:37:26.454Z,936.36
2016-10-10T04:38:39.411Z,936.35
2016-10-10T04:39:51.334Z,936.36
2016-10-10T04:41:04.329Z,936.31
2016-10-10T04:42:17.860Z,936.3
2016-10-10T04:43:30.885Z,936.28
2016-10-10T04:44:44.532Z,936.25
2016-10-10T04:45:55.860Z,936.23
2016-10-10T04:47:08.363Z,936.21
2016-10-10T04:48:21.852Z,936.24
2016-10-10T04:49:34.853Z,936.22
2016-10-10T04:50:47.487Z,936.2
2016-10-10T04:52:01.059Z,936.18
2016-10-10T04:53:14.112Z,936.18
2016-10-10T04:54:27.106Z,936.16
2016-10-10T04:55:40.711Z,936.16
2016-10-10T04:56:53.722Z,936.18
2016-10-10T04:58:06.616Z,936.13
2016-10-10T04:59:19.577Z,936.1
2016-10-10T05:00:32.802Z,936.11
2016-10-10T05:01:46.407Z,936.05
2016-10-10T05:02:59.021Z,936.01
2016-10-10T05:04:11.437Z,936.04
2016-10-10T05:05:24.399Z,935.98
2016-10-10T05:06:36.688Z,935.96
2016-10-10T05:07:49.107Z,935.96
2016-10-10T05:09:02.097Z,935.98
2016-10-10T05:10:15.050Z,935.95
2016-10-10T05:11:27.993Z,936.02
2016-10-10T05:12:41.520Z,935.96
2016-10-10T05:13:54.490Z,935.99
2016-10-10T05:15:07.405Z,935.97
2016-10-10T05:16:20.397Z,935.95
2016-10-10T05:17:33.963Z,935.96
2016-10-10T05:18:46.435Z,935.96
2016-10-10T05:19:58.328Z,935.93
2016-10-10T05:21:10.235Z,935.93
2016-10-10T05:22:23.183Z,935.94
2016-10-10T05:23:36.208Z,935.95
2016-10-10T05:24:48.633Z,935.92
2016-10-10T05:26:01.048Z,935.9
2016-10-10T05:27:14.040Z,935.92
2016-10-10T05:28:27.653Z,935.91
2016-10-10T05:29:40.812Z,935.91
2016-10-10T05:30:53.722Z,935.91
2016-10-10T05:32:07.124Z,935.87
2016-10-10T05:33:20.692Z,935.86
2016-10-10T05:34:33.615Z,935.86
2016-10-10T05:35:47.110Z,935.83
2016-10-10T05:37:00.073Z,935.78
2016-10-10T05:38:13.585Z,935.8
2016-10-10T05:39:27.184Z,935.83
2016-10-10T05:40:40.726Z,935.81
2016-10-10T05:41:53.297Z,935.8
2016-10-10T05:43:06.831Z,935.78
2016-10-10T05:44:20.360Z,935.79
2016-10-10T05:45:32.805Z,935.78
2016-10-10T05:46:46.282Z,935.73
2016-10-10T05:47:59.784Z,935.77
2016-10-10T05:49:11.722Z,935.73
2016-10-10T05:50:24.870Z,935.76
2016-10-10T05:51:36.776Z,935.73
2016-10-10T05:52:49.162Z,935.73
2016-10-10T05:54:02.085Z,935.71
2016-10-10T05:55:14.108Z,935.74
2016-10-10T05:56:27.158Z,935.72
2016-10-10T05:57:40.145Z,935.75
2016-10-10T05:58:52.599Z,935.7
2016-10-10T06:00:04.437Z,935.66
2016-10-10T06:01:17.530Z,935.68
2016-10-10T06:02:30.486Z,935.64
2016-10-10T06:03:42.931Z,935.7
2016-10-10T06:04:56.394Z,935.67
2016-10-10T06:06:09.851Z,935.69
2016-10-10T06:07:22.579Z,935.7
2016-10-10T06:08:36.130Z,935.71
2016-10-10T06:09:48.559Z,935.69
2016-10-10T06:11:01.508Z,935.7
2016-10-10T06:12:15.069Z,935.7
2016-10-10T06:13:28.093Z,935.74
2016-10-10T06:14:41.763Z,935.75
2016-10-10T06:15:54.291Z,935.78
2016-10-10T06:17:07.222Z,935.79
2016-10-10T06:18:19.891Z,935.82
2016-10-10T06:19:32.827Z,935.78
2016-10-10T06:20:46.563Z,935.81
2016-10-10T06:21:59.044Z,935.81
2016-10-10T06:23:12.111Z,935.78
2016-10-10T06:24:24.526Z,935.82
2016-10-10T06:25:36.484Z,935.81
2016-10-10T06:26:48.870Z,935.8
2016-10-10T06:28:01.852Z,935.83
2016-10-10T06:29:15.504Z,935.83
2016-10-10T06:30:28.450Z,935.8
2016-10-10T06:31:40.864Z,935.87
2016-10-10T06:32:53.871Z,935.85
2016-10-10T06:34:07.488Z,935.83
2016-10-10T06:35:20.940Z,935.83
2016-10-10T06:36:33.312Z,935.81
2016-10-10T06:37:46.293Z,935.87
2016-10-10T06:38:59.270Z,935.85
2016-10-10T06:40:12.305Z,935.85
2016-10-10T06:41:25.831Z,935.92
2016-10-10T06:42:38.781Z,935.87
2016-10-10T06:43:51.715Z,935.9
2016-10-10T06:45:04.816Z,935.93
2016-10-10T06:46:17.750Z,935.94
2016-10-10T06:47:30.631Z,935.96
2016-10-10T06:48:44.089Z,935.97
2016-10-10T06:49:56.543Z,935.95
2016-10-10T06:51:09.006Z,935.96
2016-10-10T06:52:22.012Z,935.95
2016-10-10T06:53:35.508Z,935.95
2016-10-10T06:54:47.952Z,935.95
2016-10-10T06:56:01.504Z,935.96
2016-10-10T06:57:14.595Z,935.95
2016-10-10T06:58:27.520Z,935.89
2016-10-10T06:59:41.100Z,935.93
2016-10-10T07:00:53.016Z,935.94
2016-10-10T07:02:06.009Z,935.92
2016-10-10T07:03:18.421Z,935.91
2016-10-10T07:04:30.834Z,935.89
2016-10-10T07:05:43.840Z,935.9
2016-10-10T07:06:56.887Z,935.9
2016-10-10T07:08:09.797Z,935.9
2016-10-10T07:09:22.734Z,935.93
2016-10-10T07:10:35.715Z,935.94
2016-10-10T07:11:48.115Z,935.98
2016-10-10T07:13:01.091Z,935.94
2016-10-10T07:14:14.080Z,935.94
2016-10-10T07:15:27.035Z,935.94
2016-10-10T07:16:39.983Z,935.94
2016-10-10T07:17:52.510Z,935.92
2016-10-10T07:19:04.936Z,935.94
2016-10-10T07:20:17.929Z,935.94
2016-10-10T07:21:31.321Z,935.99
2016-10-10T07:22:44.770Z,935.98
2016-10-10T07:23:58.296Z,935.97
2016-10-10T07:25:11.198Z,936.02
2016-10-10T07:26:24.622Z,936.05
2016-10-10T07:27:37.019Z,936.08
2016-10-10T07:28:49.543Z,936.13
2016-10-10T07:30:01.979Z,936.18
2016-10-10T07:31:15.495Z,936.13
2016-10-10T07:32:29.050Z,936.15
2016-10-10T07:33:41.477Z,936.19
2016-10-10T07:34:54.561Z,936.18
2016-10-10T07:36:08.087Z,936.19
2016-10-10T07:37:21.485Z,936.18
2016-10-10T07:38:33.945Z,936.2
2016-10-10T07:39:45.437Z,936.24
2016-10-10T07:40:57.846Z,936.28
2016-10-10T07:42:10.941Z,936.26
2016-10-10T07:43:24.358Z,936.28
2016-10-10T07:44:36.894Z,936.33
2016-10-10T07:45:49.830Z,936.32
2016-10-10T07:47:02.221Z,936.3
2016-10-10T07:48:14.650Z,936.37
2016-10-10T07:49:27.605Z,936.4
2016-10-10T07:50:40.783Z,936.38
2016-10-10T07:51:53.251Z,936.37
2016-10-10T07:53:06.222Z,936.43
2016-10-10T07:54:19.187Z,936.47
2016-10-10T07:55:32.871Z,936.48
2016-10-10T07:56:45.363Z,936.48
2016-10-10T07:57:57.810Z,936.5
2016-10-10T07:59:10.801Z,936.51
2016-10-10T08:00:24.236Z,936.52
2016-10-10T08:01:36.274Z,936.52
2016-10-10T08:02:49.209Z,936.48
2016-10-10T08:04:02.681Z,936.51
2016-10-10T08:05:15.113Z,936.5
2016-10-10T08:06:28.029Z,936.5
2016-10-10T08:07:40.955Z,936.52
2016-10-10T08:08:54.392Z,936.52
2016-10-10T08:10:07.520Z,936.54
2016-10-10T08:11:20.517Z,936.53
2016-10-10T08:12:33.034Z,936.56
2016-10-10T08:13:44.396Z,936.55
2016-10-10T08:14:57.334Z,936.53
2016-10-10T08:16:10.332Z,936.55
2016-10-10T08:17:23.768Z,936.59
2016-10-10T08:18:36.765Z,936.57
2016-10-10T08:19:50.247Z,936.58
2016-10-10T08:21:03.404Z,936.6
2016-10-10T08:22:15.915Z,936.56
2016-10-10T08:23:28.985Z,936.57
2016-10-10T08:24:40.921Z,936.59
2016-10-10T08:25:53.848Z,936.6
2016-10-10T08:27:06.785Z,936.6
2016-10-10T08:28:20.276Z,936.62
2016-10-10T08:29:33.358Z,936.57
2016-10-10T08:30:46.807Z,936.61
2016-10-10T08:31:58.193Z,936.68
2016-10-10T08:33:10.656Z,936.71
2016-10-10T08:34:24.337Z,936.72
2016-10-10T08:35:37.757Z,936.69
2016-10-10T08:36:51.298Z,936.74
2016-10-10T08:38:04.817Z,936.65
2016-10-10T08:39:17.760Z,936.61
2016-10-10T08:40:30.788Z,936.59
2016-10-10T08:41:43.740Z,936.61
2016-10-10T08:42:57.203Z,936.63
2016-10-10T08:44:09.044Z,936.61
2016-10-10T08:45:22.642Z,936.64
2016-10-10T08:46:35.789Z,936.64
2016-10-10T08:47:47.735Z,936.68
2016-10-10T08:49:00.746Z,936.64
2016-10-10T08:50:14.195Z,936.72
2016-10-10T08:51:26.615Z,936.71
2016-10-10T08:52:39.583Z,936.74
2016-10-10T08:53:52.550Z,936.75
2016-10-10T08:55:06.075Z,936.81
2016-10-10T08:56:18.608Z,936.81
2016-10-10T08:57:31.789Z,936.84
2016-10-10T08:58:45.259Z,936.87
2016-10-10T08:59:57.380Z,936.92
2016-10-10T09:01:10.815Z,936.93
2016-10-10T09:02:23.842Z,936.94
2016-10-10T09:03:35.741Z,936.96
2016-10-10T09:04:48.179Z,936.99
2016-10-10T09:06:01.626Z,936.94
2016-10-10T09:07:15.181Z,936.92
2016-10-10T09:08:28.663Z,937.01
2016-10-10T09:09:42.168Z,937
2016-10-10T09:10:54.547Z,937.01
2016-10-10T09:12:06.952Z,937.08
2016-10-10T09:13:20.379Z,937.08
2016-10-10T09:14:32.755Z,937.11
2016-10-10T09:15:46.345Z,937.05
2016-10-10T09:17:00.071Z,937.06
2016-10-10T09:18:12.058Z,937.11
2016-10-10T09:19:24.977Z,937.19
2016-10-10T09:20:37.738Z,937.15
2016-10-10T09:21:51.188Z,937.18
2016-10-10T09:23:03.608Z,937.21
2016-10-10T09:24:16.536Z,937.21
2016-10-10T09:25:29.990Z,937.24
2016-10-10T09:26:43.011Z,937.28
2016-10-10T09:27:55.949Z,937.33
2016-10-10T09:29:09.858Z,937.39
2016-10-10T09:30:22.868Z,937.41
2016-10-10T09:31:35.826Z,937.47
2016-10-10T09:32:48.768Z,937.51
2016-10-10T09:34:02.211Z,937.49
2016-10-10T09:35:15.141Z,937.5
2016-10-10T09:36:27.569Z,937.53
2016-10-10T09:37:41.002Z,937.54
2016-10-10T09:38:54.476Z,937.58
2016-10-10T09:40:08.452Z,937.63
2016-10-10T09:41:22.160Z,937.64
2016-10-10T09:42:35.602Z,937.66
2016-10-10T09:43:51.804Z,937.69
2016-10-10T09:45:04.771Z,937.76
2016-10-10T09:46:17.798Z,937.82
2016-10-10T09:47:30.764Z,937.85
2016-10-10T09:48:43.633Z,937.88
2016-10-10T09:49:56.209Z,937.92
2016-10-10T09:51:09.604Z,937.9
2016-10-10T09:52:23.036Z,937.9
2016-10-10T09:53:36.488Z,937.92
2016-10-10T09:54:49.372Z,937.95
2016-10-10T09:56:02.863Z,937.98
2016-10-10T09:57:15.300Z,938.01
2016-10-10T09:58:28.810Z,938.05
2016-10-10T09:59:42.306Z,938
2016-10-10T10:00:54.858Z,938.05
2016-10-10T10:02:07.827Z,938.09
2016-10-10T10:03:20.842Z,938.12
2016-10-10T10:04:33.258Z,938.15
2016-10-10T10:05:45.696Z,938.18
2016-10-10T10:06:58.173Z,938.2
2016-10-10T10:08:10.511Z,938.2
2016-10-10T10:09:23.512Z,938.26
2016-10-10T10:10:36.988Z,938.26
2016-10-10T10:11:48.962Z,938.27
2016-10-10T10:13:02.406Z,938.35
2016-10-10T10:14:15.379Z,938.33
2016-10-10T10:15:28.326Z,938.37
2016-10-10T10:16:39.676Z,938.33
2016-10-10T10:17:51.598Z,938.35
2016-10-10T10:19:03.496Z,938.33
2016-10-10T10:20:16.447Z,938.34
2016-10-10T10:21:29.446Z,938.39
2016-10-10T10:22:43.021Z,938.39
2016-10-10T10:23:56.001Z,938.42
2016-10-10T10:25:09.029Z,938.45
2016-10-10T10:26:21.906Z,938.5
2016-10-10T10:27:34.814Z,938.54
2016-10-10T10:28:47.859Z,938.57
2016-10-10T10:30:00.833Z,938.61
2016-10-10T10:31:14.296Z,938.6
2016-10-10T10:32:26.707Z,938.58
2016-10-10T10:33:40.189Z,938.53
2016-10-10T10:34:53.365Z,938.55
2016-10-10T10:36:06.397Z,938.56
2016-10-10T10:37:19.336Z,938.56
2016-10-10T10:38:32.260Z,938.57
2016-10-10T10:39:44.186Z,938.61
2016-10-10T10:40:57.107Z,938.67
2016-10-10T10:42:10.044Z,938.65
2016-10-10T10:43:22.982Z,938.64
2016-10-10T10:44:36.045Z,938.63
2016-10-10T10:45:49.012Z,938.61
2016-10-10T10:47:02.078Z,938.62
2016-10-10T10:48:14.479Z,938.62
2016-10-10T10:49:27.696Z,938.6
2016-10-10T10:50:40.710Z,938.63
2016-10-10T10:51:53.127Z,938.66
2016-10-10T10:53:06.115Z,938.66
2016-10-10T10:54:19.257Z,938.65
2016-10-10T10:55:32.229Z,938.66
2016-10-10T10:56:45.162Z,938.67
2016-10-10T10:57:58.119Z,938.67
2016-10-10T10:59:11.604Z,938.7
2016-10-10T11:00:25.262Z,938.65
2016-10-10T11:01:38.296Z,938.65
2016-10-10T11:02:51.769Z,938.61
2016-10-10T11:04:03.680Z,938.65
2016-10-10T11:05:16.622Z,938.66
2016-10-10T11:06:29.546Z,938.69
2016-10-10T11:07:42.493Z,938.71
2016-10-10T11:08:55.412Z,938.68
2016-10-10T11:10:08.922Z,938.66
2016-10-10T11:11:22.070Z,938.69
2016-10-10T11:12:34.534Z,938.76
2016-10-10T11:13:47.473Z,938.82
2016-10-10T11:15:00.536Z,938.8
2016-10-10T11:16:13.965Z,938.82
2016-10-10T11:17:27.005Z,938.81
2016-10-10T11:18:40.677Z,938.84
2016-10-10T11:19:53.074Z,938.83
2016-10-10T11:21:05.517Z,938.86
2016-10-10T11:22:18.098Z,938.87
2016-10-10T11:23:31.615Z,938.92
2016-10-10T11:24:44.545Z,938.86
2016-10-10T11:25:58.012Z,938.76
2016-10-10T11:27:10.980Z,938.72
2016-10-10T11:28:23.894Z,938.69
2016-10-10T11:29:37.331Z,938.7
2016-10-10T11:30:50.814Z,938.69
2016-10-10T11:32:04.253Z,938.74
2016-10-10T11:33:17.863Z,938.73
2016-10-10T11:34:31.408Z,938.77
2016-10-10T11:35:44.527Z,938.74
2016-10-10T11:36:58.064Z,938.72
2016-10-10T11:38:11.115Z,938.77
2016-10-10T11:39:24.044Z,938.73
2016-10-10T11:40:37.613Z,938.71
2016-10-10T11:41:50.026Z,938.66
2016-10-10T11:43:03.565Z,938.68
2016-10-10T11:44:17.258Z,938.71
2016-10-10T11:45:30.734Z,938.66
2016-10-10T11:46:44.185Z,938.7
2016-10-10T11:47:56.603Z,938.68
2016-10-10T11:49:09.167Z,938.66
2016-10-10T11:50:22.659Z,938.7
2016-10-10T11:51:35.107Z,938.7
2016-10-10T11:52:47.499Z,938.7
2016-10-10T11:54:00.449Z,938.7
2016-10-10T11:55:14.165Z,938.72
2016-10-10T11:56:26.257Z,938.69
2016-10-10T11:57:39.757Z,938.74
2016-10-10T11:58:52.701Z,938.74
2016-10-10T12:00:04.864Z,938.75
2016-10-10T12:01:17.790Z,938.79
2016-10-10T12:02:30.749Z,938.78
2016-10-10T12:03:43.689Z,938.82
2016-10-10T12:04:56.118Z,938.76
2016-10-10T12:06:08.078Z,938.82
2016-10-10T12:07:21.498Z,938.86
2016-10-10T12:08:34.083Z,938.84
2016-10-10T12:09:47.545Z,938.89
2016-10-10T12:11:01.253Z,938.91
2016-10-10T12:12:14.166Z,938.92
2016-10-10T12:13:26.586Z,938.93
2016-10-10T12:14:40.189Z,938.92
2016-10-10T12:15:53.349Z,938.96
2016-10-10T12:17:07.272Z,938.95
2016-10-10T12:18:19.730Z,938.98
2016-10-10T12:19:32.158Z,938.97
2016-10-10T12:20:45.642Z,938.94
2016-10-10T12:21:58.170Z,938.87
2016-10-10T12:23:11.642Z,938.89
2016-10-10T12:24:24.640Z,938.86
2016-10-10T12:25:38.145Z,938.88
2016-10-10T12:26:51.710Z,938.91
2016-10-10T12:28:04.639Z,938.85
2016-10-10T12:29:17.768Z,938.9
2016-10-10T12:30:31.312Z,938.85
2016-10-10T12:31:44.795Z,938.9
2016-10-10T12:32:57.312Z,938.84
2016-10-10T12:34:10.873Z,938.77
2016-10-10T12:35:23.297Z,938.83
2016-10-10T12:36:36.984Z,938.79
2016-10-10T12:37:50.130Z,938.74
2016-10-10T12:39:02.727Z,938.74
2016-10-10T12:40:15.270Z,938.72
2016-10-10T12:41:28.256Z,938.67
2016-10-10T12:42:41.499Z,938.69
2016-10-10T12:43:54.541Z,938.65
2016-10-10T12:45:07.631Z,938.68
2016-10-10T12:46:20.680Z,938.62
2016-10-10T12:47:33.724Z,938.6
2016-10-10T12:48:45.576Z,938.66
2016-10-10T12:49:59.386Z,938.6
2016-10-10T12:51:13.202Z,938.61
2016-10-10T12:52:26.721Z,938.65
2016-10-10T12:53:40.266Z,938.64
2016-10-10T12:54:53.293Z,938.64
2016-10-10T12:56:06.291Z,938.69
2016-10-10T12:57:18.742Z,938.69
2016-10-10T12:58:32.141Z,938.72
2016-10-10T12:59:45.669Z,938.72
2016-10-10T13:00:58.615Z,938.78
2016-10-10T13:02:11.669Z,938.7
2016-10-10T13:03:24.605Z,938.68
2016-10-10T13:04:37.589Z,938.74
2016-10-10T13:05:51.342Z,938.74
2016-10-10T13:07:04.808Z,938.74
2016-10-10T13:08:17.798Z,938.69
2016-10-10T13:09:30.741Z,938.69
2016-10-10T13:10:42.968Z,938.61
2016-10-10T13:11:55.428Z,938.62
2016-10-10T13:13:07.926Z,938.58
2016-10-10T13:14:20.434Z,938.57
2016-10-10T13:15:32.871Z,938.58
2016-10-10T13:16:46.349Z,938.6
2016-10-10T13:17:59.973Z,938.54
2016-10-10T13:19:13.553Z,938.5
2016-10-10T13:20:27.402Z,938.5
2016-10-10T13:21:40.853Z,938.38
2016-10-10T13:22:54.385Z,938.42
2016-10-10T13:24:07.450Z,938.35
2016-10-10T13:25:20.910Z,938.37
2016-10-10T13:26:33.054Z,938.36
2016-10-10T13:27:46.055Z,938.33
2016-10-10T13:28:59.056Z,938.33
2016-10-10T13:30:12.091Z,938.28
2016-10-10T13:31:24.753Z,938.22
2016-10-10T13:32:36.658Z,938.23
2016-10-10T13:33:50.459Z,938.26
2016-10-10T13:35:01.869Z,938.26
2016-10-10T13:36:13.798Z,938.24
2016-10-10T13:37:27.038Z,938.23
2016-10-10T13:38:44.860Z,938.26
2016-10-10T13:40:05.599Z,938.28
2016-10-10T13:41:29.608Z,938.25
2016-10-10T13:42:50.887Z,938.23
2016-10-10T13:44:13.837Z,938.21
2016-10-10T13:45:26.994Z,938.19
2016-10-10T13:46:39.903Z,938.18
2016-10-10T13:47:52.901Z,938.15
2016-10-10T13:49:05.366Z,938.15
2016-10-10T13:50:18.307Z,938.14
2016-10-10T13:51:30.689Z,938.14
2016-10-10T13:52:43.652Z,938.14
2016-10-10T13:53:55.515Z,938.14
2016-10-10T13:55:08.645Z,938.15
2016-10-10T13:56:21.643Z,938.04
2016-10-10T13:57:34.797Z,938.01
2016-10-10T13:58:47.786Z,938
2016-10-10T14:00:00.764Z,938.04
2016-10-10T14:01:13.831Z,938.01
2016-10-10T14:02:27.284Z,937.91
2016-10-10T14:03:39.152Z,937.88
2016-10-10T14:04:51.157Z,937.9
2016-10-10T14:06:04.135Z,937.85
2016-10-10T14:07:17.098Z,937.93
2016-10-10T14:08:29.531Z,937.93
2016-10-10T14:09:41.425Z,937.91
2016-10-10T14:10:54.423Z,937.9
2016-10-10T14:12:07.360Z,937.86
2016-10-10T14:13:20.343Z,937.81
2016-10-10T14:14:32.295Z,937.8
2016-10-10T14:15:45.353Z,937.76
2016-10-10T14:16:57.273Z,937.8
2016-10-10T14:18:10.416Z,937.76
2016-10-10T14:19:23.425Z,937.77
2016-10-10T14:20:35.858Z,937.77
2016-10-10T14:21:48.341Z,937.78
2016-10-10T14:23:00.716Z,937.82
2016-10-10T14:24:13.484Z,937.83
2016-10-10T14:25:26.429Z,937.81
2016-10-10T14:26:38.372Z,937.81
2016-10-10T14:27:50.817Z,937.75
2016-10-10T14:29:04.317Z,937.77
2016-10-10T14:30:17.330Z,937.7
2016-10-10T14:31:30.811Z,937.72
2016-10-10T14:32:43.775Z,937.7
2016-10-10T14:33:56.779Z,937.67
2016-10-10T14:35:10.217Z,937.7
2016-10-10T14:36:23.151Z,937.68
2016-10-10T14:37:36.708Z,937.64
2016-10-10T14:38:50.190Z,937.6
2016-10-10T14:40:03.174Z,937.63
2016-10-10T14:41:16.816Z,937.62
2016-10-10T14:42:29.790Z,937.63
2016-10-10T14:43:42.752Z,937.63
2016-10-10T14:44:55.620Z,937.57
2016-10-10T14:46:08.564Z,937.57
2016-10-10T14:47:21.508Z,937.55
2016-10-10T14:48:35.026Z,937.48
2016-10-10T14:49:47.915Z,937.49
2016-10-10T14:51:01.077Z,937.48
2016-10-10T14:52:14.063Z,937.49
2016-10-10T14:53:27.067Z,937.48
2016-10-10T14:54:40.080Z,937.49
2016-10-10T14:55:53.662Z,937.48
2016-10-10T14:57:07.204Z,937.57
2016-10-10T14:58:20.163Z,937.6
2016-10-10T14:59:32.587Z,937.64
2016-10-10T15:00:45.318Z,937.6
2016-10-10T15:01:58.310Z,937.59
2016-10-10T15:03:11.893Z,937.53
2016-10-10T15:04:23.242Z,937.5
2016-10-10T15:05:36.716Z,937.46
2016-10-10T15:06:49.140Z,937.6
2016-10-10T15:08:01.016Z,937.45
2016-10-10T15:09:14.491Z,937.42
2016-10-10T15:10:27.488Z,937.38
2016-10-10T15:11:40.389Z,937.38
2016-10-10T15:12:53.995Z,937.36
2016-10-10T15:14:07.499Z,937.42